sensor_id;sensor_type;location;lat;lon;timestamp;pressure;altitude;pressure_sealevel;temperature;humidity
8653;BME280;4364;52.426;9.424;2024-02-14T00:00:09;101137.38;;;5.67;92.12
8653;BME280;4364;52.426;9.424;2024-02-14T00:02:43;101130.31;;;5.66;92.42
8653;BME280;4364;52.426;9.424;2024-02-14T00:05:10;101137.84;;;5.64;92.67
8653;BME280;4364;52.426;9.424;2024-02-14T00:07:38;101138.19;;;5.80;92.85
8653;BME280;4364;52.426;9.424;2024-02-14T00:10:06;101133.28;;;5.77;92.85
8653;BME280;4364;52.426;9.424;2024-02-14T00:12:33;101127.28;;;5.74;93.51
8653;BME280;4364;52.426;9.424;2024-02-14T00:15:00;101119.91;;;5.82;93.09
8653;BME280;4364;52.426;9.424;2024-02-14T00:17:29;101127.28;;;5.74;93.58
8653;BME280;4364;52.426;9.424;2024-02-14T00:19:56;101114.06;;;5.85;93.96
8653;BME280;4364;52.426;9.424;2024-02-14T00:22:23;101112.41;;;5.84;93.87
8653;BME280;4364;52.426;9.424;2024-02-14T00:24:50;101109.69;;;5.84;93.94
8653;BME280;4364;52.426;9.424;2024-02-14T00:27:16;101105.44;;;5.88;94.47
8653;BME280;4364;52.426;9.424;2024-02-14T00:29:43;101107.81;;;5.84;94.00
8653;BME280;4364;52.426;9.424;2024-02-14T00:32:12;101105.22;;;5.89;93.95
8653;BME280;4364;52.426;9.424;2024-02-14T00:34:39;101096.19;;;5.84;94.31
8653;BME280;4364;52.426;9.424;2024-02-14T00:37:06;101091.84;;;5.94;93.43
8653;BME280;4364;52.426;9.424;2024-02-14T00:39:32;101085.88;;;5.92;93.79
8653;BME280;4364;52.426;9.424;2024-02-14T00:41:59;101085.41;;;5.96;93.80
8653;BME280;4364;52.426;9.424;2024-02-14T00:44:26;101080.47;;;5.92;93.70
8653;BME280;4364;52.426;9.424;2024-02-14T00:46:57;101087.28;;;5.95;93.81
8653;BME280;4364;52.426;9.424;2024-02-14T00:49:26;101071.78;;;5.90;93.90
8653;BME280;4364;52.426;9.424;2024-02-14T00:51:53;101072.84;;;5.89;94.05
8653;BME280;4364;52.426;9.424;2024-02-14T00:54:20;101075.28;;;5.91;94.36
8653;BME280;4364;52.426;9.424;2024-02-14T00:56:46;101072.84;;;5.89;94.51
8653;BME280;4364;52.426;9.424;2024-02-14T00:59:13;101066.72;;;5.94;94.39
8653;BME280;4364;52.426;9.424;2024-02-14T01:01:39;101062.78;;;5.97;94.20
8653;BME280;4364;52.426;9.424;2024-02-14T01:04:06;101067.78;;;5.93;93.70
8653;BME280;4364;52.426;9.424;2024-02-14T01:06:33;101062.41;;;6.05;93.56
8653;BME280;4364;52.426;9.424;2024-02-14T01:09:00;101052.31;;;6.00;93.48
8653;BME280;4364;52.426;9.424;2024-02-14T01:11:27;101057.81;;;5.93;93.93
8653;BME280;4364;52.426;9.424;2024-02-14T01:13:54;101060.19;;;6.02;93.69
8653;BME280;4364;52.426;9.424;2024-02-14T01:16:21;101054.03;;;5.94;93.76
8653;BME280;4364;52.426;9.424;2024-02-14T01:18:47;101058.41;;;5.96;94.03
8653;BME280;4364;52.426;9.424;2024-02-14T01:21:14;101051.25;;;6.01;94.01
8653;BME280;4364;52.426;9.424;2024-02-14T01:23:41;101049.13;;;6.15;93.02
8653;BME280;4364;52.426;9.424;2024-02-14T01:26:07;101046.09;;;6.11;92.67
8653;BME280;4364;52.426;9.424;2024-02-14T01:28:34;101038.66;;;6.19;92.83
8653;BME280;4364;52.426;9.424;2024-02-14T01:31:00;101041.81;;;6.27;91.65
8653;BME280;4364;52.426;9.424;2024-02-14T01:33:27;101035.72;;;6.20;92.31
8653;BME280;4364;52.426;9.424;2024-02-14T01:35:57;101032.38;;;6.42;91.18
8653;BME280;4364;52.426;9.424;2024-02-14T01:38:24;101030.72;;;6.41;90.97
8653;BME280;4364;52.426;9.424;2024-02-14T01:40:50;101027.81;;;6.30;91.62
8653;BME280;4364;52.426;9.424;2024-02-14T01:43:17;101022.09;;;6.27;91.62
8653;BME280;4364;52.426;9.424;2024-02-14T01:45:43;101021.84;;;6.28;92.35
8653;BME280;4364;52.426;9.424;2024-02-14T01:48:10;101012.44;;;6.31;92.86
8653;BME280;4364;52.426;9.424;2024-02-14T01:50:36;101019.16;;;6.28;93.74
8653;BME280;4364;52.426;9.424;2024-02-14T01:53:03;101017.03;;;6.30;93.12
8653;BME280;4364;52.426;9.424;2024-02-14T01:55:31;101012.84;;;6.40;92.82
8653;BME280;4364;52.426;9.424;2024-02-14T01:57:58;101008.38;;;6.45;93.09
8653;BME280;4364;52.426;9.424;2024-02-14T02:00:25;101007.72;;;6.38;93.16
8653;BME280;4364;52.426;9.424;2024-02-14T02:02:53;100999.03;;;6.36;93.64
8653;BME280;4364;52.426;9.424;2024-02-14T02:05:22;100997.31;;;6.30;95.01
8653;BME280;4364;52.426;9.424;2024-02-14T02:07:49;101001.00;;;6.41;96.11
8653;BME280;4364;52.426;9.424;2024-02-14T02:10:15;100990.44;;;6.39;96.71
8653;BME280;4364;52.426;9.424;2024-02-14T02:12:42;100993.28;;;6.33;97.24
8653;BME280;4364;52.426;9.424;2024-02-14T02:15:09;100989.38;;;6.40;98.00
8653;BME280;4364;52.426;9.424;2024-02-14T02:17:39;100985.19;;;6.33;99.15
8653;BME280;4364;52.426;9.424;2024-02-14T02:20:06;100977.47;;;6.24;100.00
8653;BME280;4364;52.426;9.424;2024-02-14T02:22:35;100981.16;;;6.18;100.00
8653;BME280;4364;52.426;9.424;2024-02-14T02:25:03;100973.53;;;6.15;100.00
8653;BME280;4364;52.426;9.424;2024-02-14T02:27:29;100972.28;;;6.23;100.00
8653;BME280;4364;52.426;9.424;2024-02-14T02:29:56;100961.59;;;6.28;100.00
8653;BME280;4364;52.426;9.424;2024-02-14T02:32:22;100959.63;;;6.23;100.00
8653;BME280;4364;52.426;9.424;2024-02-14T02:34:49;100959.53;;;6.18;100.00
8653;BME280;4364;52.426;9.424;2024-02-14T02:37:15;100951.59;;;6.11;100.00
8653;BME280;4364;52.426;9.424;2024-02-14T02:39:43;100953.81;;;6.03;100.00
8653;BME280;4364;52.426;9.424;2024-02-14T02:42:09;100951.03;;;5.98;100.00
8653;BME280;4364;52.426;9.424;2024-02-14T02:44:38;100956.44;;;5.98;100.00
8653;BME280;4364;52.426;9.424;2024-02-14T02:47:04;100947.63;;;6.02;100.00
8653;BME280;4364;52.426;9.424;2024-02-14T02:49:31;100944.44;;;5.93;100.00
8653;BME280;4364;52.426;9.424;2024-02-14T02:51:58;100952.13;;;5.85;100.00
8653;BME280;4364;52.426;9.424;2024-02-14T02:54:24;100946.22;;;5.88;100.00
8653;BME280;4364;52.426;9.424;2024-02-14T02:56:51;100937.88;;;5.89;100.00
8653;BME280;4364;52.426;9.424;2024-02-14T02:59:17;100940.81;;;5.88;100.00
8653;BME280;4364;52.426;9.424;2024-02-14T03:01:44;100939.44;;;5.85;100.00
8653;BME280;4364;52.426;9.424;2024-02-14T03:04:11;100932.81;;;5.93;100.00
8653;BME280;4364;52.426;9.424;2024-02-14T03:06:39;100917.94;;;5.90;100.00
8653;BME280;4364;52.426;9.424;2024-02-14T03:09:06;100921.56;;;5.96;100.00
8653;BME280;4364;52.426;9.424;2024-02-14T03:11:34;100926.13;;;5.96;100.00
8653;BME280;4364;52.426;9.424;2024-02-14T03:14:03;100925.88;;;6.09;100.00
8653;BME280;4364;52.426;9.424;2024-02-14T03:16:30;100923.88;;;6.04;100.00
8653;BME280;4364;52.426;9.424;2024-02-14T03:18:57;100918.09;;;6.12;100.00
8653;BME280;4364;52.426;9.424;2024-02-14T03:21:25;100921.03;;;6.11;100.00
8653;BME280;4364;52.426;9.424;2024-02-14T03:23:51;100921.63;;;6.13;100.00
8653;BME280;4364;52.426;9.424;2024-02-14T03:26:20;100926.63;;;6.21;100.00
8653;BME280;4364;52.426;9.424;2024-02-14T03:28:46;100919.91;;;6.07;100.00
8653;BME280;4364;52.426;9.424;2024-02-14T03:31:15;100909.84;;;6.19;100.00
8653;BME280;4364;52.426;9.424;2024-02-14T03:33:42;100909.53;;;6.16;100.00
8653;BME280;4364;52.426;9.424;2024-02-14T03:36:10;100912.47;;;6.14;100.00
8653;BME280;4364;52.426;9.424;2024-02-14T03:38:36;100897.97;;;6.03;100.00
8653;BME280;4364;52.426;9.424;2024-02-14T03:41:03;100895.41;;;5.97;100.00
8653;BME280;4364;52.426;9.424;2024-02-14T03:43:30;100886.25;;;5.98;100.00
8653;BME280;4364;52.426;9.424;2024-02-14T03:45:58;100889.28;;;6.01;100.00
8653;BME280;4364;52.426;9.424;2024-02-14T03:48:24;100885.63;;;6.07;100.00
8653;BME280;4364;52.426;9.424;2024-02-14T03:50:51;100882.09;;;6.07;100.00
8653;BME280;4364;52.426;9.424;2024-02-14T03:53:18;100884.25;;;6.22;100.00
8653;BME280;4364;52.426;9.424;2024-02-14T03:55:44;100871.88;;;6.09;100.00
8653;BME280;4364;52.426;9.424;2024-02-14T03:58:11;100878.78;;;6.17;100.00
8653;BME280;4364;52.426;9.424;2024-02-14T04:00:39;100874.34;;;6.10;100.00
8653;BME280;4364;52.426;9.424;2024-02-14T04:03:06;100870.59;;;6.11;100.00
8653;BME280;4364;52.426;9.424;2024-02-14T04:05:33;100872.94;;;6.08;100.00
8653;BME280;4364;52.426;9.424;2024-02-14T04:07:59;100863.13;;;6.19;100.00
8653;BME280;4364;52.426;9.424;2024-02-14T04:10:26;100856.66;;;6.20;100.00
8653;BME280;4364;52.426;9.424;2024-02-14T04:12:52;100853.22;;;6.24;100.00
8653;BME280;4364;52.426;9.424;2024-02-14T04:15:19;100858.63;;;6.24;100.00
8653;BME280;4364;52.426;9.424;2024-02-14T04:17:45;100857.19;;;6.34;100.00
8653;BME280;4364;52.426;9.424;2024-02-14T04:20:12;100868.78;;;6.17;100.00
8653;BME280;4364;52.426;9.424;2024-02-14T04:22:39;100861.16;;;6.14;100.00
8653;BME280;4364;52.426;9.424;2024-02-14T04:25:07;100859.78;;;6.11;100.00
8653;BME280;4364;52.426;9.424;2024-02-14T04:27:33;100855.59;;;6.21;100.00
8653;BME280;4364;52.426;9.424;2024-02-14T04:30:01;100862.34;;;6.18;100.00
8653;BME280;4364;52.426;9.424;2024-02-14T04:32:28;100853.63;;;6.16;100.00
8653;BME280;4364;52.426;9.424;2024-02-14T04:34:54;100858.94;;;6.11;100.00
8653;BME280;4364;52.426;9.424;2024-02-14T04:37:21;100853.22;;;6.24;100.00
8653;BME280;4364;52.426;9.424;2024-02-14T04:39:48;100852.72;;;6.10;100.00
8653;BME280;4364;52.426;9.424;2024-02-14T04:42:14;100853.88;;;6.15;100.00
8653;BME280;4364;52.426;9.424;2024-02-14T04:44:41;100857.31;;;6.10;100.00
8653;BME280;4364;52.426;9.424;2024-02-14T04:47:07;100856.25;;;6.11;100.00
8653;BME280;4364;52.426;9.424;2024-02-14T04:49:36;100863.13;;;6.02;100.00
8653;BME280;4364;52.426;9.424;2024-02-14T04:52:04;100869.00;;;5.99;100.00
8653;BME280;4364;52.426;9.424;2024-02-14T04:54:30;100856.53;;;5.98;100.00
8653;BME280;4364;52.426;9.424;2024-02-14T04:56:57;100853.94;;;6.03;100.00
8653;BME280;4364;52.426;9.424;2024-02-14T04:59:28;100849.63;;;6.19;100.00
8653;BME280;4364;52.426;9.424;2024-02-14T05:01:55;100849.41;;;6.20;100.00
8653;BME280;4364;52.426;9.424;2024-02-14T05:04:22;100853.63;;;6.16;100.00
8653;BME280;4364;52.426;9.424;2024-02-14T05:06:49;100852.59;;;6.17;100.00
8653;BME280;4364;52.426;9.424;2024-02-14T05:09:18;100858.13;;;6.10;100.00
8653;BME280;4364;52.426;9.424;2024-02-14T05:11:45;100850.84;;;6.11;100.00
8653;BME280;4364;52.426;9.424;2024-02-14T05:14:12;100840.03;;;6.11;100.00
8653;BME280;4364;52.426;9.424;2024-02-14T05:16:38;100832.88;;;6.17;100.00
8653;BME280;4364;52.426;9.424;2024-02-14T05:19:04;100841.44;;;6.14;100.00
8653;BME280;4364;52.426;9.424;2024-02-14T05:21:31;100834.81;;;6.21;100.00
8653;BME280;4364;52.426;9.424;2024-02-14T05:23:58;100838.84;;;6.19;100.00
8653;BME280;4364;52.426;9.424;2024-02-14T05:26:24;100837.59;;;6.26;100.00
8653;BME280;4364;52.426;9.424;2024-02-14T05:28:51;100832.63;;;6.35;100.00
8653;BME280;4364;52.426;9.424;2024-02-14T05:31:17;100834.09;;;6.26;100.00
8653;BME280;4364;52.426;9.424;2024-02-14T05:33:44;100826.78;;;6.26;100.00
8653;BME280;4364;52.426;9.424;2024-02-14T05:36:11;100835.56;;;6.34;100.00
8653;BME280;4364;52.426;9.424;2024-02-14T05:38:37;100835.91;;;6.20;100.00
8653;BME280;4364;52.426;9.424;2024-02-14T05:41:04;100841.47;;;6.30;100.00
8653;BME280;4364;52.426;9.424;2024-02-14T05:43:30;100833.13;;;6.32;100.00
8653;BME280;4364;52.426;9.424;2024-02-14T05:45:57;100823.78;;;6.40;100.00
8653;BME280;4364;52.426;9.424;2024-02-14T05:48:24;100830.56;;;6.42;100.00
8653;BME280;4364;52.426;9.424;2024-02-14T05:50:50;100828.94;;;6.41;100.00
8653;BME280;4364;52.426;9.424;2024-02-14T05:53:17;100825.41;;;6.41;100.00
8653;BME280;4364;52.426;9.424;2024-02-14T05:55:44;100829.53;;;6.43;100.00
8653;BME280;4364;52.426;9.424;2024-02-14T05:58:10;100834.56;;;6.40;100.00
8653;BME280;4364;52.426;9.424;2024-02-14T06:00:38;100829.53;;;6.43;100.00
8653;BME280;4364;52.426;9.424;2024-02-14T06:03:05;100834.41;;;6.46;100.00
8653;BME280;4364;52.426;9.424;2024-02-14T06:05:33;100831.81;;;6.52;100.00
8653;BME280;4364;52.426;9.424;2024-02-14T06:07:59;100831.47;;;6.48;100.00
8653;BME280;4364;52.426;9.424;2024-02-14T06:10:29;100826.63;;;6.67;100.00
8653;BME280;4364;52.426;9.424;2024-02-14T06:12:56;100828.34;;;6.56;100.00
8653;BME280;4364;52.426;9.424;2024-02-14T06:15:23;100843.50;;;6.57;100.00
8653;BME280;4364;52.426;9.424;2024-02-14T06:17:49;100837.88;;;6.59;100.00
8653;BME280;4364;52.426;9.424;2024-02-14T06:20:16;100848.50;;;6.48;100.00
8653;BME280;4364;52.426;9.424;2024-02-14T06:22:43;100840.72;;;6.52;100.00
8653;BME280;4364;52.426;9.424;2024-02-14T06:25:22;100839.66;;;6.53;100.00
8653;BME280;4364;52.426;9.424;2024-02-14T06:27:48;100843.59;;;6.62;100.00
8653;BME280;4364;52.426;9.424;2024-02-14T06:30:15;100849.47;;;6.59;100.00
8653;BME280;4364;52.426;9.424;2024-02-14T06:32:43;100850.41;;;6.65;100.00
8653;BME280;4364;52.426;9.424;2024-02-14T06:35:09;100849.78;;;6.80;100.00
8653;BME280;4364;52.426;9.424;2024-02-14T06:37:36;100843.94;;;6.88;100.00
8653;BME280;4364;52.426;9.424;2024-02-14T06:40:17;100848.63;;;6.93;100.00
8653;BME280;4364;52.426;9.424;2024-02-14T06:42:44;100850.94;;;6.84;100.00
8653;BME280;4364;52.426;9.424;2024-02-14T06:45:10;100853.53;;;6.96;100.00
8653;BME280;4364;52.426;9.424;2024-02-14T06:47:37;100846.72;;;7.10;100.00
8653;BME280;4364;52.426;9.424;2024-02-14T06:50:05;100856.00;;;7.19;100.00
8653;BME280;4364;52.426;9.424;2024-02-14T06:52:34;100857.91;;;7.19;100.00
8653;BME280;4364;52.426;9.424;2024-02-14T06:55:01;100859.81;;;7.18;100.00
8653;BME280;4364;52.426;9.424;2024-02-14T06:57:30;100856.25;;;7.18;100.00
8653;BME280;4364;52.426;9.424;2024-02-14T06:59:57;100868.16;;;7.17;100.00
8653;BME280;4364;52.426;9.424;2024-02-14T07:02:23;100869.09;;;7.28;100.00
8653;BME280;4364;52.426;9.424;2024-02-14T07:04:54;100874.03;;;7.31;100.00
8653;BME280;4364;52.426;9.424;2024-02-14T07:07:21;100878.69;;;7.35;100.00
8653;BME280;4364;52.426;9.424;2024-02-14T07:09:47;100874.81;;;7.31;100.00
8653;BME280;4364;52.426;9.424;2024-02-14T07:12:13;100875.38;;;7.33;100.00
8653;BME280;4364;52.426;9.424;2024-02-14T07:14:40;100868.06;;;7.29;100.00
8653;BME280;4364;52.426;9.424;2024-02-14T07:17:07;100881.16;;;7.37;100.00
8653;BME280;4364;52.426;9.424;2024-02-14T07:19:34;100880.25;;;7.31;100.00
8653;BME280;4364;52.426;9.424;2024-02-14T07:22:00;100882.69;;;7.33;100.00
8653;BME280;4364;52.426;9.424;2024-02-14T07:24:27;100883.91;;;7.42;100.00
8653;BME280;4364;52.426;9.424;2024-02-14T07:26:54;100878.44;;;7.37;100.00
8653;BME280;4364;52.426;9.424;2024-02-14T07:29:20;100896.59;;;7.41;100.00
8653;BME280;4364;52.426;9.424;2024-02-14T07:31:47;100893.97;;;7.47;100.00
8653;BME280;4364;52.426;9.424;2024-02-14T07:34:13;100890.75;;;7.50;100.00
8653;BME280;4364;52.426;9.424;2024-02-14T07:36:40;100882.69;;;7.55;100.00
8653;BME280;4364;52.426;9.424;2024-02-14T07:39:11;100890.69;;;7.67;100.00
8653;BME280;4364;52.426;9.424;2024-02-14T07:41:38;100883.91;;;7.64;100.00
8653;BME280;4364;52.426;9.424;2024-02-14T07:44:04;100904.22;;;7.67;100.00
8653;BME280;4364;52.426;9.424;2024-02-14T07:46:32;100892.13;;;7.74;100.00
8653;BME280;4364;52.426;9.424;2024-02-14T07:48:58;100902.22;;;7.79;100.00
8653;BME280;4364;52.426;9.424;2024-02-14T07:51:25;100898.41;;;7.80;100.00
8653;BME280;4364;52.426;9.424;2024-02-14T07:53:52;100899.56;;;7.84;100.00
8653;BME280;4364;52.426;9.424;2024-02-14T07:56:18;100891.75;;;7.88;100.00
8653;BME280;4364;52.426;9.424;2024-02-14T07:58:45;100898.88;;;7.94;100.00
8653;BME280;4364;52.426;9.424;2024-02-14T08:01:11;100905.91;;;7.95;100.00
8653;BME280;4364;52.426;9.424;2024-02-14T08:03:40;100898.91;;;7.99;100.00
8653;BME280;4364;52.426;9.424;2024-02-14T08:06:06;100906.72;;;7.95;100.00
8653;BME280;4364;52.426;9.424;2024-02-14T08:08:33;100907.34;;;8.03;100.00
8653;BME280;4364;52.426;9.424;2024-02-14T08:11:00;100912.25;;;8.06;100.00
8653;BME280;4364;52.426;9.424;2024-02-14T08:13:27;100912.31;;;8.11;100.00
8653;BME280;4364;52.426;9.424;2024-02-14T08:15:53;100918.47;;;8.06;100.00
8653;BME280;4364;52.426;9.424;2024-02-14T08:18:20;100910.34;;;8.06;100.00
8653;BME280;4364;52.426;9.424;2024-02-14T08:20:47;100918.72;;;8.05;100.00
8653;BME280;4364;52.426;9.424;2024-02-14T08:23:13;100923.09;;;8.06;100.00
8653;BME280;4364;52.426;9.424;2024-02-14T08:25:39;100928.50;;;8.06;100.00
8653;BME280;4364;52.426;9.424;2024-02-14T08:28:07;100927.94;;;8.04;100.00
8653;BME280;4364;52.426;9.424;2024-02-14T08:30:34;100927.22;;;8.13;100.00
8653;BME280;4364;52.426;9.424;2024-02-14T08:33:05;100932.63;;;8.13;100.00
8653;BME280;4364;52.426;9.424;2024-02-14T08:35:32;100929.72;;;8.20;100.00
8653;BME280;4364;52.426;9.424;2024-02-14T08:38:08;100935.09;;;8.15;100.00
8653;BME280;4364;52.426;9.424;2024-02-14T08:40:34;100940.00;;;8.18;100.00
8653;BME280;4364;52.426;9.424;2024-02-14T08:43:01;100941.84;;;8.12;100.00
8653;BME280;4364;52.426;9.424;2024-02-14T08:45:28;100935.94;;;8.15;100.00
8653;BME280;4364;52.426;9.424;2024-02-14T08:47:56;100941.59;;;8.14;100.00
8653;BME280;4364;52.426;9.424;2024-02-14T08:50:23;100946.75;;;8.15;100.00
8653;BME280;4364;52.426;9.424;2024-02-14T08:52:49;100944.09;;;8.21;100.00
8653;BME280;4364;52.426;9.424;2024-02-14T08:55:16;100942.47;;;8.20;100.00
8653;BME280;4364;52.426;9.424;2024-02-14T08:57:44;100942.50;;;8.25;100.00
8653;BME280;4364;52.426;9.424;2024-02-14T09:00:11;100946.06;;;8.25;100.00
8653;BME280;4364;52.426;9.424;2024-02-14T09:02:46;100949.56;;;8.26;100.00
8653;BME280;4364;52.426;9.424;2024-02-14T09:05:15;100950.44;;;8.31;100.00
8653;BME280;4364;52.426;9.424;2024-02-14T09:07:43;100949.41;;;8.38;100.00
8653;BME280;4364;52.426;9.424;2024-02-14T09:10:10;100955.72;;;8.43;100.00
8653;BME280;4364;52.426;9.424;2024-02-14T09:12:38;100955.94;;;8.42;100.00
8653;BME280;4364;52.426;9.424;2024-02-14T09:15:07;100961.19;;;8.48;100.00
8653;BME280;4364;52.426;9.424;2024-02-14T09:17:34;100957.72;;;8.53;100.00
8653;BME280;4364;52.426;9.424;2024-02-14T09:20:01;100962.88;;;8.55;100.00
8653;BME280;4364;52.426;9.424;2024-02-14T09:22:29;100970.50;;;8.58;100.00
8653;BME280;4364;52.426;9.424;2024-02-14T09:24:56;100964.03;;;8.59;100.00
8653;BME280;4364;52.426;9.424;2024-02-14T09:27:23;100967.63;;;8.69;100.00
8653;BME280;4364;52.426;9.424;2024-02-14T09:29:50;100957.13;;;8.78;100.00
8653;BME280;4364;52.426;9.424;2024-02-14T09:32:16;100967.72;;;8.80;100.00
8653;BME280;4364;52.426;9.424;2024-02-14T09:34:43;100961.47;;;8.79;100.00
8653;BME280;4364;52.426;9.424;2024-02-14T09:37:12;100956.88;;;8.80;100.00
8653;BME280;4364;52.426;9.424;2024-02-14T09:39:38;100964.50;;;8.83;100.00
8653;BME280;4364;52.426;9.424;2024-02-14T09:42:11;100963.19;;;8.85;100.00
8653;BME280;4364;52.426;9.424;2024-02-14T09:44:40;100967.50;;;8.86;100.00
8653;BME280;4364;52.426;9.424;2024-02-14T09:47:07;100967.56;;;8.97;100.00
8653;BME280;4364;52.426;9.424;2024-02-14T09:49:35;100975.09;;;8.84;100.00
8653;BME280;4364;52.426;9.424;2024-02-14T09:52:06;100976.19;;;8.88;100.00
8653;BME280;4364;52.426;9.424;2024-02-14T09:54:34;100982.97;;;8.86;100.00
8653;BME280;4364;52.426;9.424;2024-02-14T09:57:02;100996.34;;;8.98;100.00
8653;BME280;4364;52.426;9.424;2024-02-14T09:59:32;101000.97;;;8.97;100.00
8653;BME280;4364;52.426;9.424;2024-02-14T10:01:58;100999.56;;;8.95;100.00
8653;BME280;4364;52.426;9.424;2024-02-14T10:04:25;100996.00;;;8.89;100.00
8653;BME280;4364;52.426;9.424;2024-02-14T10:06:52;101000.63;;;8.94;100.00
8653;BME280;4364;52.426;9.424;2024-02-14T10:09:22;101005.16;;;8.83;100.00
8653;BME280;4364;52.426;9.424;2024-02-14T10:11:49;101003.06;;;8.90;100.00
8653;BME280;4364;52.426;9.424;2024-02-14T10:14:15;101011.09;;;8.80;100.00
8653;BME280;4364;52.426;9.424;2024-02-14T10:16:42;101010.88;;;8.86;100.00
8653;BME280;4364;52.426;9.424;2024-02-14T10:19:18;101012.03;;;8.90;100.00
8653;BME280;4364;52.426;9.424;2024-02-14T10:22:00;101022.63;;;8.92;100.00
8653;BME280;4364;52.426;9.424;2024-02-14T10:24:32;101019.16;;;9.02;100.00
8653;BME280;4364;52.426;9.424;2024-02-14T10:26:59;101027.28;;;9.02;100.00
8653;BME280;4364;52.426;9.424;2024-02-14T10:29:27;101021.56;;;8.98;100.00
8653;BME280;4364;52.426;9.424;2024-02-14T10:31:53;101023.22;;;8.99;100.00
8653;BME280;4364;52.426;9.424;2024-02-14T10:34:24;101026.06;;;9.15;100.00
8653;BME280;4364;52.426;9.424;2024-02-14T10:36:52;101029.09;;;9.23;100.00
8653;BME280;4364;52.426;9.424;2024-02-14T10:39:22;101028.84;;;9.25;100.00
8653;BME280;4364;52.426;9.424;2024-02-14T10:41:50;101018.50;;;9.22;100.00
8653;BME280;4364;52.426;9.424;2024-02-14T10:44:17;101021.31;;;9.32;100.00
8653;BME280;4364;52.426;9.424;2024-02-14T10:46:44;101035.66;;;9.27;100.00
8653;BME280;4364;52.426;9.424;2024-02-14T10:49:12;101029.78;;;9.41;100.00
8653;BME280;4364;52.426;9.424;2024-02-14T10:51:43;101029.25;;;9.44;100.00
8653;BME280;4364;52.426;9.424;2024-02-14T10:54:14;101031.13;;;9.43;100.00
8653;BME280;4364;52.426;9.424;2024-02-14T10:56:45;101025.69;;;9.38;100.00
8653;BME280;4364;52.426;9.424;2024-02-14T10:59:19;101028.38;;;9.38;100.00
8653;BME280;4364;52.426;9.424;2024-02-14T11:02:12;101029.50;;;9.37;100.00
8653;BME280;4364;52.426;9.424;2024-02-14T11:04:39;101037.44;;;9.49;100.00
8653;BME280;4364;52.426;9.424;2024-02-14T11:07:09;101038.03;;;9.61;100.00
8653;BME280;4364;52.426;9.424;2024-02-14T11:09:36;101034.28;;;9.68;100.00
8653;BME280;4364;52.426;9.424;2024-02-14T11:12:08;101043.53;;;9.72;100.00
8653;BME280;4364;52.426;9.424;2024-02-14T11:14:35;101032.16;;;9.75;100.00
8653;BME280;4364;52.426;9.424;2024-02-14T11:17:09;101039.22;;;9.76;100.00
8653;BME280;4364;52.426;9.424;2024-02-14T11:19:36;101044.72;;;9.86;100.00
8653;BME280;4364;52.426;9.424;2024-02-14T11:22:17;101039.28;;;9.86;100.00
8653;BME280;4364;52.426;9.424;2024-02-14T11:24:48;101042.03;;;9.91;100.00
8653;BME280;4364;52.426;9.424;2024-02-14T11:27:14;101043.63;;;9.87;100.00
8653;BME280;4364;52.426;9.424;2024-02-14T11:29:59;101045.81;;;9.90;100.00
8653;BME280;4364;52.426;9.424;2024-02-14T11:32:27;101048.25;;;9.92;100.00
8653;BME280;4364;52.426;9.424;2024-02-14T11:34:55;101050.47;;;9.95;100.00
8653;BME280;4364;52.426;9.424;2024-02-14T11:37:29;101051.03;;;10.02;100.00
8653;BME280;4364;52.426;9.424;2024-02-14T11:39:56;101057.28;;;10.02;100.00
8653;BME280;4364;52.426;9.424;2024-02-14T11:42:24;101057.56;;;10.01;100.00
8653;BME280;4364;52.426;9.424;2024-02-14T11:44:52;101052.63;;;9.93;100.00
8653;BME280;4364;52.426;9.424;2024-02-14T11:47:20;101060.75;;;9.88;100.00
8653;BME280;4364;52.426;9.424;2024-02-14T11:49:46;101059.69;;;9.94;100.00
8653;BME280;4364;52.426;9.424;2024-02-14T11:52:13;101058.03;;;9.88;100.00
8653;BME280;4364;52.426;9.424;2024-02-14T11:54:46;101062.09;;;9.90;100.00
8653;BME280;4364;52.426;9.424;2024-02-14T11:57:18;101070.84;;;9.92;100.00
8653;BME280;4364;52.426;9.424;2024-02-14T11:59:48;101067.28;;;9.92;100.00
8653;BME280;4364;52.426;9.424;2024-02-14T12:02:16;101070.50;;;9.89;100.00
8653;BME280;4364;52.426;9.424;2024-02-14T12:04:43;101075.41;;;9.87;100.00
8653;BME280;4364;52.426;9.424;2024-02-14T12:07:09;101067.00;;;9.88;100.00
8653;BME280;4364;52.426;9.424;2024-02-14T12:09:36;101073.22;;;9.83;100.00
8653;BME280;4364;52.426;9.424;2024-02-14T12:12:04;101074.34;;;9.88;100.00
8653;BME280;4364;52.426;9.424;2024-02-14T12:14:32;101075.66;;;9.85;100.00
8653;BME280;4364;52.426;9.424;2024-02-14T12:16:59;101072.66;;;9.81;100.00
8653;BME280;4364;52.426;9.424;2024-02-14T12:19:29;101075.13;;;9.88;100.00
8653;BME280;4364;52.426;9.424;2024-02-14T12:21:59;101082.75;;;9.86;100.00
8653;BME280;4364;52.426;9.424;2024-02-14T12:24:29;101083.75;;;9.75;100.00
8653;BME280;4364;52.426;9.424;2024-02-14T12:26:56;101087.53;;;9.74;100.00
8653;BME280;4364;52.426;9.424;2024-02-14T12:29:23;101084.31;;;9.77;100.00
8653;BME280;4364;52.426;9.424;2024-02-14T12:31:50;101072.38;;;9.78;100.00
8653;BME280;4364;52.426;9.424;2024-02-14T12:34:16;101086.81;;;9.89;100.00
8653;BME280;4364;52.426;9.424;2024-02-14T12:36:49;101079.53;;;9.94;100.00
8653;BME280;4364;52.426;9.424;2024-02-14T12:39:15;101082.25;;;9.94;100.00
8653;BME280;4364;52.426;9.424;2024-02-14T12:41:42;101077.34;;;9.91;100.00
8653;BME280;4364;52.426;9.424;2024-02-14T12:44:08;101082.78;;;9.96;100.00
8653;BME280;4364;52.426;9.424;2024-02-14T12:46:35;101082.47;;;9.88;100.00
8653;BME280;4364;52.426;9.424;2024-02-14T12:49:04;101087.94;;;9.93;100.00
8653;BME280;4364;52.426;9.424;2024-02-14T12:51:31;101086.06;;;9.98;100.00
8653;BME280;4364;52.426;9.424;2024-02-14T12:53:57;101085.28;;;10.03;100.00
8653;BME280;4364;52.426;9.424;2024-02-14T12:56:24;101076.59;;;10.06;100.00
8653;BME280;4364;52.426;9.424;2024-02-14T12:58:51;101083.88;;;10.00;100.00
8653;BME280;4364;52.426;9.424;2024-02-14T13:01:17;101078.50;;;10.06;100.00
8653;BME280;4364;52.426;9.424;2024-02-14T13:03:44;101087.75;;;10.10;100.00
8653;BME280;4364;52.426;9.424;2024-02-14T13:06:12;101088.81;;;10.09;100.00
8653;BME280;4364;52.426;9.424;2024-02-14T13:08:40;101082.88;;;10.12;100.00
8653;BME280;4364;52.426;9.424;2024-02-14T13:11:08;101082.28;;;10.05;100.00
8653;BME280;4364;52.426;9.424;2024-02-14T13:13:35;101084.97;;;9.94;100.00